CMA CGM Thalassa — 5BNE2 — position and weather

sailwx.info

Track history (hours):
 
Tides and Currents Weather Stations Pressure Air Temp Water Temp Dewpoint Dewpoint Depression Visibility Wind Speed Wind Dir Waves Ship Positions

CMA CGM Thalassa

Last reported at 2016-May-22 21:27 UTC. Time now 2016-May-30 20:22 UTC.
Position N 35°11' E 142°12'.

Length 347 m; draft 12.7 m.

Type: Ship (hazmat cat A). MMSI: 212151000.

Date/timePositionNaut miles runAvg speedWind from/ knotsBaromVisibWave heightAir tempDewpointWater temp
2016-May-22 21:27N 35°11' E 142°12'1820.3
2016-May-22 20:33N 34°60' E 141°55'  
2016-May-18 07:17N 22°17' E 114°06'3 4.4
2016-May-18 06:33N 22°20' E 114°07'0 0.1
2016-May-18 05:24N 22°20' E 114°07'0 0.0
2016-May-18 04:27N 22°20' E 114°07'0 0.0
2016-May-18 02:29N 22°20' E 114°07'0 0.0
2016-May-18 01:28N 22°20' E 114°07'0 0.0
2016-May-18 00:13N 22°20' E 114°07'0 0.0
2016-May-17 18:31N 22°20' E 114°07'0 0.0
2016-May-17 17:22N 22°20' E 114°07'0 0.0
2016-May-17 16:18N 22°20' E 114°07'0 0.0
2016-May-17 15:30N 22°20' E 114°07'0 0.0
2016-May-17 11:28N 22°20' E 114°07'0 0.0
2016-May-17 10:25N 22°20' E 114°07'0 0.2
2016-May-17 09:33N 22°20' E 114°07'19 3.8
2016-May-17 04:29N 22°09' E 113°50'1212.6
2016-May-17 03:33N 22°21' E 113°48'14 0.6
2016-May-16 05:23N 22°34' E 113°43'1214.0
2016-May-16 04:33N 22°23' E 113°47'1211.7
2016-May-16 03:33N 22°12' E 113°50'23 7.8
2016-May-16 00:32N 22°08' E 114°15'1212.0
2016-May-15 23:32N 22°07' E 114°28'13413.3
2016-May-15 13:30N 22°46' E 116°46'1914.1
2016-May-15 12:10N 22°56' E 117°04'1214.3
2016-May-15 11:21N 23°01' E 117°15'1214.3
2016-May-15 10:32N 23°07' E 117°26'2813.9
2016-May-15 08:30N 23°25' E 117°50'1312.6
2016-May-15 07:27N 23°35' E 117°59'1412.9
2016-May-15 06:23N 23°46' E 118°09'1213.1
2016-May-15 05:26N 23°56' E 118°17'1112.7
2016-May-15 04:32N 24°07' E 118°21'1414.2
2016-May-15 03:33N 24°18' E 118°12'1313.2
2016-May-15 02:33N 24°27' E 118°01'1 0.4
2016-May-15 01:16N 24°27' E 118°00'0 0.0
2016-May-14 17:27N 24°27' E 118°00'0 0.0
2016-May-14 12:10N 24°27' E 118°00'2 2.9
2016-May-14 11:33N 24°26' E 118°02'1111.4
2016-May-14 10:34N 24°19' E 118°12'61 8.7
2016-May-14 03:32N 24°27' E 119°18'53 8.4
2016-May-13 21:10N 25°18' E 119°37'19 2.5
2016-May-13 13:29N 25°25' E 119°17'0 0.0
2016-May-13 12:29N 25°25' E 119°17'0 0.0
2016-May-13 10:28N 25°25' E 119°17'0 0.0
2016-May-13 09:09N 25°25' E 119°17'0 0.0
2016-May-13 08:21N 25°25' E 119°17'0 0.0
2016-May-13 07:33N 25°25' E 119°17'0 0.0
2016-May-13 06:33N 25°25' E 119°17'0 0.0
2016-May-13 05:33N 25°25' E 119°17'0 0.0
2016-May-13 04:33N 25°25' E 119°17'0 0.0
2016-May-13 03:31N 25°25' E 119°17'0 0.0
2016-May-13 02:33N 25°25' E 119°17'0 0.0
2016-May-13 01:33N 25°25' E 119°17'0 0.0
2016-May-13 00:33N 25°25' E 119°17'0 0.0
2016-May-12 23:33N 25°25' E 119°17'0 0.0
2016-May-12 22:33N 25°25' E 119°17'0 0.0
2016-May-12 21:33N 25°25' E 119°17'  
Track history (hours):
 
Tides and Currents Weather Stations Pressure Air Temp Water Temp Dewpoint Dewpoint Depression Visibility Wind Speed Wind Dir Waves Ship Positions

CMA CGM Thalassa

Last reported at 2016-May-22 21:27 UTC. Time now 2016-May-30 20:22 UTC.
Position N 35°11' E 142°12'.

Length 347 m; draft 12.7 m.

Type: Ship (hazmat cat A). MMSI: 212151000.

Date/timePositionNaut miles runAvg speedWind from/ knotsBaromVisibWave heightAir tempDewpointWater temp
2016-May-22 21:27N 35°11' E 142°12'1820.3
2016-May-22 20:33N 34°60' E 141°55'  
2016-May-18 07:17N 22°17' E 114°06'3 4.4
2016-May-18 06:33N 22°20' E 114°07'0 0.1
2016-May-18 05:24N 22°20' E 114°07'0 0.0
2016-May-18 04:27N 22°20' E 114°07'0 0.0
2016-May-18 02:29N 22°20' E 114°07'0 0.0
2016-May-18 01:28N 22°20' E 114°07'0 0.0
2016-May-18 00:13N 22°20' E 114°07'0 0.0
2016-May-17 18:31N 22°20' E 114°07'0 0.0
2016-May-17 17:22N 22°20' E 114°07'0 0.0
2016-May-17 16:18N 22°20' E 114°07'0 0.0
2016-May-17 15:30N 22°20' E 114°07'0 0.0
2016-May-17 11:28N 22°20' E 114°07'0 0.0
2016-May-17 10:25N 22°20' E 114°07'0 0.2
2016-May-17 09:33N 22°20' E 114°07'19 3.8
2016-May-17 04:29N 22°09' E 113°50'1212.6
2016-May-17 03:33N 22°21' E 113°48'14 0.6
2016-May-16 05:23N 22°34' E 113°43'1214.0
2016-May-16 04:33N 22°23' E 113°47'1211.7
2016-May-16 03:33N 22°12' E 113°50'23 7.8
2016-May-16 00:32N 22°08' E 114°15'1212.0
2016-May-15 23:32N 22°07' E 114°28'13413.3
2016-May-15 13:30N 22°46' E 116°46'1914.1
2016-May-15 12:10N 22°56' E 117°04'1214.3
2016-May-15 11:21N 23°01' E 117°15'1214.3
2016-May-15 10:32N 23°07' E 117°26'2813.9
2016-May-15 08:30N 23°25' E 117°50'1312.6
2016-May-15 07:27N 23°35' E 117°59'1412.9
2016-May-15 06:23N 23°46' E 118°09'1213.1
2016-May-15 05:26N 23°56' E 118°17'1112.7
2016-May-15 04:32N 24°07' E 118°21'1414.2
2016-May-15 03:33N 24°18' E 118°12'1313.2
2016-May-15 02:33N 24°27' E 118°01'1 0.4
2016-May-15 01:16N 24°27' E 118°00'0 0.0
2016-May-14 17:27N 24°27' E 118°00'0 0.0
2016-May-14 12:10N 24°27' E 118°00'2 2.9
2016-May-14 11:33N 24°26' E 118°02'1111.4
2016-May-14 10:34N 24°19' E 118°12'61 8.7
2016-May-14 03:32N 24°27' E 119°18'53 8.4
2016-May-13 21:10N 25°18' E 119°37'19 2.5
2016-May-13 13:29N 25°25' E 119°17'0 0.0
2016-May-13 12:29N 25°25' E 119°17'0 0.0
2016-May-13 10:28N 25°25' E 119°17'0 0.0
2016-May-13 09:09N 25°25' E 119°17'0 0.0
2016-May-13 08:21N 25°25' E 119°17'0 0.0
2016-May-13 07:33N 25°25' E 119°17'0 0.0
2016-May-13 06:33N 25°25' E 119°17'0 0.0
2016-May-13 05:33N 25°25' E 119°17'0 0.0
2016-May-13 04:33N 25°25' E 119°17'0 0.0
2016-May-13 03:31N 25°25' E 119°17'0 0.0
2016-May-13 02:33N 25°25' E 119°17'0 0.0
2016-May-13 01:33N 25°25' E 119°17'0 0.0
2016-May-13 00:33N 25°25' E 119°17'0 0.0
2016-May-12 23:33N 25°25' E 119°17'0 0.0
2016-May-12 22:33N 25°25' E 119°17'0 0.0
2016-May-12 21:33N 25°25' E 119°17'  

Dump ship's entire track history